createdAt,value
2017-07-28T00:00:03.588Z,805.97
2017-07-28T00:00:08.054Z,805.99
2017-07-28T00:00:12.501Z,806.01
2017-07-28T00:00:16.973Z,806
2017-07-28T00:00:21.307Z,805.95
2017-07-28T00:00:25.651Z,805.99
2017-07-28T00:00:30.020Z,806.03
2017-07-28T00:00:34.487Z,805.99
2017-07-28T00:00:38.710Z,805.97
2017-07-28T00:00:43.169Z,806.01
2017-07-28T00:00:47.645Z,806
2017-07-28T00:00:51.898Z,805.98
2017-07-28T00:00:56.123Z,806
2017-07-28T00:01:00.576Z,806
2017-07-28T00:01:04.927Z,806.03
2017-07-28T00:01:09.288Z,806
2017-07-28T00:01:13.622Z,805.93
2017-07-28T00:01:18.083Z,805.98
2017-07-28T00:01:22.553Z,805.99
2017-07-28T00:01:26.890Z,805.98
2017-07-28T00:01:31.236Z,806
2017-07-28T00:01:35.583Z,805.98
2017-07-28T00:01:40.051Z,805.98
2017-07-28T00:01:44.512Z,805.96
2017-07-28T00:01:48.735Z,806.02
2017-07-28T00:01:52.842Z,806.04
2017-07-28T00:01:57.182Z,806.04
2017-07-28T00:02:01.638Z,806.03
2017-07-28T00:02:06.055Z,805.98
2017-07-28T00:02:10.530Z,806
2017-07-28T00:02:14.872Z,805.98
2017-07-28T00:02:19.347Z,806
2017-07-28T00:02:23.814Z,806.04
2017-07-28T00:02:28.153Z,806
2017-07-28T00:02:32.502Z,806.03
2017-07-28T00:02:36.983Z,806
2017-07-28T00:02:41.209Z,806.05
2017-07-28T00:02:45.549Z,806.02
2017-07-28T00:02:50.029Z,806.03
2017-07-28T00:02:54.495Z,806.06
2017-07-28T00:02:58.953Z,806.03
2017-07-28T00:03:03.360Z,806.03
2017-07-28T00:03:07.706Z,805.97
2017-07-28T00:03:12.173Z,806.01
2017-07-28T00:03:16.535Z,806.04
2017-07-28T00:03:20.870Z,806.05
2017-07-28T00:03:25.339Z,806.01
2017-07-28T00:03:29.575Z,806.04
2017-07-28T00:03:33.799Z,806.03
2017-07-28T00:03:38.273Z,806.02
2017-07-28T00:03:42.619Z,806.04
2017-07-28T00:03:46.975Z,806.06
2017-07-28T00:03:51.429Z,806.01
2017-07-28T00:03:55.900Z,806.06
2017-07-28T00:04:00.375Z,806.05
2017-07-28T00:04:04.723Z,806.03
2017-07-28T00:04:09.068Z,806.05
2017-07-28T00:04:13.551Z,806.06
2017-07-28T00:04:18.034Z,806.05
2017-07-28T00:04:22.394Z,806.03
2017-07-28T00:04:26.857Z,806.07
2017-07-28T00:04:30.959Z,806.05
2017-07-28T00:04:35.332Z,806.07
2017-07-28T00:04:39.780Z,806.06
2017-07-28T00:04:44.239Z,806.06
2017-07-28T00:04:48.709Z,806.08
2017-07-28T00:04:53.155Z,806.07
2017-07-28T00:04:57.605Z,806.05
2017-07-28T00:05:01.833Z,806.11
2017-07-28T00:05:06.324Z,806.06
2017-07-28T00:05:10.779Z,806.08
2017-07-28T00:05:15.225Z,806.08
2017-07-28T00:05:19.690Z,806.06
2017-07-28T00:05:24.152Z,806.09
2017-07-28T00:05:28.609Z,806.09
2017-07-28T00:05:32.824Z,806.07
2017-07-28T00:05:37.293Z,806.09
2017-07-28T00:05:41.534Z,806.11
2017-07-28T00:05:46.001Z,806.08
2017-07-28T00:05:50.455Z,806.1
2017-07-28T00:05:54.677Z,806.11
2017-07-28T00:05:59.044Z,806.09
2017-07-28T00:06:03.802Z,806.11
2017-07-28T00:06:08.028Z,806.09
2017-07-28T00:06:12.259Z,806.13
2017-07-28T00:06:16.738Z,806.14
2017-07-28T00:06:21.207Z,806.11
2017-07-28T00:06:25.542Z,806.12
2017-07-28T00:06:29.906Z,806.08
2017-07-28T00:06:34.145Z,806.12
2017-07-28T00:06:38.505Z,806.11
2017-07-28T00:06:42.973Z,806.12
2017-07-28T00:06:47.315Z,806.11
2017-07-28T00:06:51.791Z,806.07
2017-07-28T00:06:56.132Z,806.13
2017-07-28T00:07:00.593Z,806.1
2017-07-28T00:07:04.877Z,806.13
2017-07-28T00:07:09.344Z,806.14
2017-07-28T00:07:13.685Z,806.14
2017-07-28T00:07:18.035Z,806.13
2017-07-28T00:07:22.491Z,806.13
2017-07-28T00:07:26.821Z,806.14
2017-07-28T00:07:30.819Z,806.14
2017-07-28T00:07:35.170Z,806.15
2017-07-28T00:07:39.651Z,806.16
2017-07-28T00:07:44.123Z,806.18
2017-07-28T00:07:48.475Z,806.13
2017-07-28T00:07:52.829Z,806.17
2017-07-28T00:07:57.291Z,806.19
2017-07-28T00:08:01.752Z,806.17
2017-07-28T00:08:06.256Z,806.19
2017-07-28T00:08:10.605Z,806.16
2017-07-28T00:08:14.941Z,806.14
2017-07-28T00:08:19.410Z,806.13
2017-07-28T00:08:23.744Z,806.22
2017-07-28T00:08:28.198Z,806.16
2017-07-28T00:08:32.434Z,806.21
2017-07-28T00:08:36.891Z,806.19
2017-07-28T00:08:41.353Z,806.21
2017-07-28T00:08:45.707Z,806.21
2017-07-28T00:08:50.166Z,806.21
2017-07-28T00:08:54.494Z,806.2
2017-07-28T00:08:58.951Z,806.22
2017-07-28T00:09:03.325Z,806.22
2017-07-28T00:09:07.549Z,806.19
2017-07-28T00:09:12.015Z,806.21
2017-07-28T00:09:16.484Z,806.2
2017-07-28T00:09:20.822Z,806.23
2017-07-28T00:09:25.275Z,806.18
2017-07-28T00:09:29.506Z,806.21
2017-07-28T00:09:33.850Z,806.24
2017-07-28T00:09:38.311Z,806.23
2017-07-28T00:09:42.769Z,806.2
2017-07-28T00:09:47.213Z,806.22
2017-07-28T00:09:51.680Z,806.23
2017-07-28T00:09:56.026Z,806.23
2017-07-28T00:10:00.479Z,806.23
2017-07-28T00:10:04.715Z,806.24
2017-07-28T00:10:08.943Z,806.27
2017-07-28T00:10:13.418Z,806.21
2017-07-28T00:10:17.885Z,806.21
2017-07-28T00:10:22.367Z,806.2
2017-07-28T00:10:26.740Z,806.23
2017-07-28T00:10:30.947Z,806.21
2017-07-28T00:10:35.187Z,806.22
2017-07-28T00:10:39.649Z,806.25
2017-07-28T00:10:44.130Z,806.24
2017-07-28T00:10:48.587Z,806.23
2017-07-28T00:10:53.043Z,806.26
2017-07-28T00:10:57.272Z,806.25
2017-07-28T00:11:01.807Z,806.23
2017-07-28T00:11:06.269Z,806.24
2017-07-28T00:11:10.728Z,806.24
2017-07-28T00:11:15.057Z,806.27
2017-07-28T00:11:19.527Z,806.25
2017-07-28T00:11:23.757Z,806.27
2017-07-28T00:11:27.873Z,806.24
2017-07-28T00:11:32.337Z,806.26
2017-07-28T00:11:36.686Z,806.27
2017-07-28T00:11:41.168Z,806.25
2017-07-28T00:11:45.628Z,806.26
2017-07-28T00:11:49.966Z,806.2
2017-07-28T00:11:54.413Z,806.22
2017-07-28T00:11:58.868Z,806.28
2017-07-28T00:12:03.261Z,806.25
2017-07-28T00:12:07.612Z,806.22
2017-07-28T00:12:12.086Z,806.27
2017-07-28T00:12:16.541Z,806.26
2017-07-28T00:12:20.874Z,806.28
2017-07-28T00:12:25.203Z,806.28
2017-07-28T00:12:29.555Z,806.27
2017-07-28T00:12:34.020Z,806.28
2017-07-28T00:12:38.380Z,806.28
2017-07-28T00:12:42.860Z,806.31
2017-07-28T00:12:47.316Z,806.27
2017-07-28T00:12:51.658Z,806.25
2017-07-28T00:12:56.116Z,806.29
2017-07-28T00:13:00.599Z,806.27
2017-07-28T00:13:04.944Z,806.3
2017-07-28T00:13:09.282Z,806.28
2017-07-28T00:13:13.760Z,806.28
2017-07-28T00:13:18.099Z,806.28
2017-07-28T00:13:22.335Z,806.23
2017-07-28T00:13:26.801Z,806.28
2017-07-28T00:13:30.936Z,806.29
2017-07-28T00:13:35.272Z,806.25
2017-07-28T00:13:39.611Z,806.26
2017-07-28T00:13:44.068Z,806.29
2017-07-28T00:13:48.542Z,806.28
2017-07-28T00:13:53.009Z,806.26
2017-07-28T00:13:57.469Z,806.28
2017-07-28T00:14:01.814Z,806.28
2017-07-28T00:14:06.036Z,806.26
2017-07-28T00:14:10.380Z,806.23
2017-07-28T00:14:14.732Z,806.29
2017-07-28T00:14:18.838Z,806.27
2017-07-28T00:14:23.320Z,806.27
2017-07-28T00:14:27.675Z,806.28
2017-07-28T00:14:32.021Z,806.3
2017-07-28T00:14:36.482Z,806.24
2017-07-28T00:14:40.819Z,806.28
2017-07-28T00:14:45.303Z,806.29
2017-07-28T00:14:49.747Z,806.29
2017-07-28T00:14:54.094Z,806.32
2017-07-28T00:14:58.452Z,806.27
2017-07-28T00:15:03.134Z,806.28
2017-07-28T00:15:07.513Z,806.31
2017-07-28T00:15:11.982Z,806.29
2017-07-28T00:15:16.438Z,806.29
2017-07-28T00:15:20.779Z,806.29
2017-07-28T00:15:25.246Z,806.31
2017-07-28T00:15:29.483Z,806.3
2017-07-28T00:15:33.715Z,806.32
2017-07-28T00:15:38.162Z,806.32
2017-07-28T00:15:42.614Z,806.31
2017-07-28T00:15:47.094Z,806.25
2017-07-28T00:15:51.554Z,806.33
2017-07-28T00:15:56.005Z,806.3
2017-07-28T00:16:00.457Z,806.35
2017-07-28T00:16:04.886Z,806.33
2017-07-28T00:16:09.362Z,806.33
2017-07-28T00:16:13.574Z,806.36
2017-07-28T00:16:18.356Z,806.37
2017-07-28T00:16:22.585Z,806.35
2017-07-28T00:16:26.931Z,806.35
2017-07-28T00:16:31.278Z,806.34
2017-07-28T00:16:35.624Z,806.35
2017-07-28T00:16:39.968Z,806.33
2017-07-28T00:16:44.431Z,806.38
2017-07-28T00:16:48.901Z,806.35
2017-07-28T00:16:53.278Z,806.31
2017-07-28T00:16:57.498Z,806.33
2017-07-28T00:17:02.093Z,806.38
2017-07-28T00:17:06.441Z,806.36
2017-07-28T00:17:10.808Z,806.38
2017-07-28T00:17:15.264Z,806.39
2017-07-28T00:17:19.728Z,806.35
2017-07-28T00:17:24.233Z,806.37
2017-07-28T00:17:28.579Z,806.35
2017-07-28T00:17:32.793Z,806.34
2017-07-28T00:17:37.252Z,806.37
2017-07-28T00:17:41.592Z,806.37
2017-07-28T00:17:46.044Z,806.38
2017-07-28T00:17:50.512Z,806.36
2017-07-28T00:17:54.981Z,806.37
2017-07-28T00:17:59.097Z,806.39
2017-07-28T00:18:03.593Z,806.38
2017-07-28T00:18:07.939Z,806.37
2017-07-28T00:18:12.274Z,806.37
2017-07-28T00:18:16.731Z,806.41
2017-07-28T00:18:21.060Z,806.4
2017-07-28T00:18:25.527Z,806.4
2017-07-28T00:18:29.869Z,806.38
2017-07-28T00:18:34.201Z,806.36
2017-07-28T00:18:38.659Z,806.34
2017-07-28T00:18:43.113Z,806.37
2017-07-28T00:18:47.566Z,806.4
2017-07-28T00:18:52.036Z,806.38
2017-07-28T00:18:56.253Z,806.4
2017-07-28T00:19:00.714Z,806.39
2017-07-28T00:19:05.075Z,806.43
2017-07-28T00:19:09.310Z,806.43
2017-07-28T00:19:13.652Z,806.44
2017-07-28T00:19:18.107Z,806.42
2017-07-28T00:19:22.459Z,806.42
2017-07-28T00:19:26.806Z,806.44
2017-07-28T00:19:30.898Z,806.42
2017-07-28T00:19:35.229Z,806.41
2017-07-28T00:19:39.710Z,806.43
2017-07-28T00:19:44.049Z,806.44
2017-07-28T00:19:48.510Z,806.42
2017-07-28T00:19:52.972Z,806.41
2017-07-28T00:19:57.426Z,806.41
2017-07-28T00:20:01.765Z,806.43
2017-07-28T00:20:06.260Z,806.45
2017-07-28T00:20:10.614Z,806.44
2017-07-28T00:20:14.851Z,806.45
2017-07-28T00:20:19.198Z,806.46
2017-07-28T00:20:23.536Z,806.45
2017-07-28T00:20:27.988Z,806.47
2017-07-28T00:20:32.075Z,806.4
2017-07-28T00:20:36.539Z,806.48
2017-07-28T00:20:40.989Z,806.45
2017-07-28T00:20:45.341Z,806.46
2017-07-28T00:20:49.817Z,806.46
2017-07-28T00:20:54.159Z,806.48
2017-07-28T00:20:58.620Z,806.46
2017-07-28T00:21:03.282Z,806.47
2017-07-28T00:21:07.610Z,806.47
2017-07-28T00:21:11.955Z,806.49
2017-07-28T00:21:16.411Z,806.45
2017-07-28T00:21:20.651Z,806.48
2017-07-28T00:21:25.118Z,806.49
2017-07-28T00:21:29.583Z,806.49
2017-07-28T00:21:33.918Z,806.48
2017-07-28T00:21:38.369Z,806.47
2017-07-28T00:21:42.829Z,806.48
2017-07-28T00:21:47.177Z,806.48
2017-07-28T00:21:51.514Z,806.51
2017-07-28T00:21:55.976Z,806.5
2017-07-28T00:22:00.436Z,806.52
2017-07-28T00:22:04.774Z,806.51
2017-07-28T00:22:09.117Z,806.52
2017-07-28T00:22:13.458Z,806.47
2017-07-28T00:22:17.918Z,806.52
2017-07-28T00:22:22.237Z,806.51
2017-07-28T00:22:26.578Z,806.53
2017-07-28T00:22:30.795Z,806.48
2017-07-28T00:22:35.234Z,806.52
2017-07-28T00:22:39.706Z,806.53
2017-07-28T00:22:44.210Z,806.51
2017-07-28T00:22:48.554Z,806.54
2017-07-28T00:22:53.021Z,806.55
2017-07-28T00:22:57.477Z,806.53
2017-07-28T00:23:01.834Z,806.54
2017-07-28T00:23:06.353Z,806.57
2017-07-28T00:23:10.707Z,806.58
2017-07-28T00:23:14.934Z,806.55
2017-07-28T00:23:19.408Z,806.54
2017-07-28T00:23:23.748Z,806.56
2017-07-28T00:23:28.087Z,806.56
2017-07-28T00:23:32.311Z,806.55
2017-07-28T00:23:36.775Z,806.51
2017-07-28T00:23:41.232Z,806.54
2017-07-28T00:23:45.576Z,806.57
2017-07-28T00:23:49.932Z,806.53
2017-07-28T00:23:54.303Z,806.56
2017-07-28T00:23:58.776Z,806.56
2017-07-28T00:24:03.260Z,806.57
2017-07-28T00:24:07.494Z,806.54
2017-07-28T00:24:11.853Z,806.58
2017-07-28T00:24:16.315Z,806.59
2017-07-28T00:24:20.783Z,806.6
2017-07-28T00:24:25.267Z,806.58
2017-07-28T00:24:29.630Z,806.59
2017-07-28T00:24:33.855Z,806.59
2017-07-28T00:24:38.305Z,806.56
2017-07-28T00:24:42.793Z,806.57
2017-07-28T00:24:47.233Z,806.58
2017-07-28T00:24:51.574Z,806.58
2017-07-28T00:24:56.052Z,806.58
2017-07-28T00:25:00.505Z,806.55
2017-07-28T00:25:05.154Z,806.58
2017-07-28T00:25:09.437Z,806.59
2017-07-28T00:25:13.801Z,806.58
2017-07-28T00:25:18.259Z,806.58
2017-07-28T00:25:22.704Z,806.59
2017-07-28T00:25:27.053Z,806.58
2017-07-28T00:25:31.524Z,806.57
2017-07-28T00:25:35.877Z,806.56
2017-07-28T00:25:40.345Z,806.6
2017-07-28T00:25:44.811Z,806.58
2017-07-28T00:25:49.198Z,806.57
2017-07-28T00:25:53.663Z,806.58
2017-07-28T00:25:58.124Z,806.58
2017-07-28T00:26:02.622Z,806.59
2017-07-28T00:26:06.977Z,806.6
2017-07-28T00:26:11.212Z,806.58
2017-07-28T00:26:15.442Z,806.57
2017-07-28T00:26:19.774Z,806.58
2017-07-28T00:26:24.229Z,806.59
2017-07-28T00:26:28.577Z,806.58
2017-07-28T00:26:32.795Z,806.56
2017-07-28T00:26:37.281Z,806.55
2017-07-28T00:26:41.737Z,806.52
2017-07-28T00:26:46.214Z,806.54
2017-07-28T00:26:50.450Z,806.54
2017-07-28T00:26:54.906Z,806.55
2017-07-28T00:26:59.357Z,806.55
2017-07-28T00:27:03.355Z,806.57
2017-07-28T00:27:07.685Z,806.61
2017-07-28T00:27:12.150Z,806.59
2017-07-28T00:27:16.485Z,806.59
2017-07-28T00:27:20.840Z,806.56
2017-07-28T00:27:25.308Z,806.6
2017-07-28T00:27:29.691Z,806.58
2017-07-28T00:27:34.158Z,806.59
2017-07-28T00:27:38.627Z,806.58
2017-07-28T00:27:43.102Z,806.56
2017-07-28T00:27:47.560Z,806.58
2017-07-28T00:27:52.015Z,806.59
2017-07-28T00:27:56.218Z,806.61
2017-07-28T00:28:00.689Z,806.58
2017-07-28T00:28:05.017Z,806.59
2017-07-28T00:28:09.361Z,806.6
2017-07-28T00:28:13.702Z,806.62
2017-07-28T00:28:18.205Z,806.61
2017-07-28T00:28:22.436Z,806.61
2017-07-28T00:28:26.895Z,806.59
2017-07-28T00:28:31.010Z,806.6
2017-07-28T00:28:35.232Z,806.6
2017-07-28T00:28:39.568Z,806.59
2017-07-28T00:28:44.029Z,806.57
2017-07-28T00:28:48.489Z,806.6
2017-07-28T00:28:52.843Z,806.6
2017-07-28T00:28:57.193Z,806.6
2017-07-28T00:29:01.545Z,806.63
2017-07-28T00:29:06.055Z,806.58
2017-07-28T00:29:10.383Z,806.6
2017-07-28T00:29:14.842Z,806.54
2017-07-28T00:29:19.312Z,806.59
2017-07-28T00:29:23.551Z,806.57
2017-07-28T00:29:27.916Z,806.56
2017-07-28T00:29:32.247Z,806.6
2017-07-28T00:29:36.589Z,806.57
2017-07-28T00:29:40.940Z,806.58
2017-07-28T00:29:45.391Z,806.56
2017-07-28T00:29:49.872Z,806.55
2017-07-28T00:29:54.333Z,806.56
2017-07-28T00:29:58.687Z,806.55
2017-07-28T00:30:03.028Z,806.54
2017-07-28T00:30:07.245Z,806.56
2017-07-28T00:30:11.613Z,806.57
2017-07-28T00:30:16.067Z,806.56
2017-07-28T00:30:20.404Z,806.56
2017-07-28T00:30:24.628Z,806.59
2017-07-28T00:30:28.972Z,806.58
2017-07-28T00:30:33.427Z,806.59
2017-07-28T00:30:37.887Z,806.58
2017-07-28T00:30:42.361Z,806.56
2017-07-28T00:30:46.856Z,806.55
2017-07-28T00:30:51.328Z,806.57
2017-07-28T00:30:55.796Z,806.59
2017-07-28T00:31:00.129Z,806.6
2017-07-28T00:31:04.958Z,806.58
2017-07-28T00:31:09.417Z,806.57
2017-07-28T00:31:13.875Z,806.58
2017-07-28T00:31:18.360Z,806.57
2017-07-28T00:31:22.606Z,806.6
2017-07-28T00:31:27.066Z,806.59
2017-07-28T00:31:31.393Z,806.59
2017-07-28T00:31:35.734Z,806.6
2017-07-28T00:31:40.223Z,806.58
2017-07-28T00:31:44.683Z,806.53
2017-07-28T00:31:49.137Z,806.6
2017-07-28T00:31:53.605Z,806.6
2017-07-28T00:31:57.955Z,806.59
2017-07-28T00:32:02.418Z,806.58
2017-07-28T00:32:06.899Z,806.57
2017-07-28T00:32:11.360Z,806.56
2017-07-28T00:32:15.825Z,806.59
2017-07-28T00:32:20.168Z,806.59
2017-07-28T00:32:24.413Z,806.58
2017-07-28T00:32:28.781Z,806.6
2017-07-28T00:32:32.898Z,806.58
2017-07-28T00:32:37.341Z,806.59
2017-07-28T00:32:41.679Z,806.6
2017-07-28T00:32:46.178Z,806.59
2017-07-28T00:32:50.652Z,806.59
2017-07-28T00:32:54.758Z,806.58
2017-07-28T00:32:59.107Z,806.62
2017-07-28T00:33:03.586Z,806.57
2017-07-28T00:33:08.051Z,806.56
2017-07-28T00:33:12.395Z,806.58
2017-07-28T00:33:16.874Z,806.56
2017-07-28T00:33:21.225Z,806.6
2017-07-28T00:33:25.687Z,806.57
2017-07-28T00:33:30.159Z,806.59
2017-07-28T00:33:34.634Z,806.61
2017-07-28T00:33:39.092Z,806.57
2017-07-28T00:33:43.550Z,806.58
2017-07-28T00:33:48.018Z,806.62
2017-07-28T00:33:52.134Z,806.55
2017-07-28T00:33:56.479Z,806.58
2017-07-28T00:34:00.582Z,806.6
2017-07-28T00:34:05.031Z,806.61
2017-07-28T00:34:09.282Z,806.58
2017-07-28T00:34:13.380Z,806.58
2017-07-28T00:34:17.738Z,806.6
2017-07-28T00:34:21.964Z,806.56
2017-07-28T00:34:26.432Z,806.58
2017-07-28T00:34:30.690Z,806.6
2017-07-28T00:34:35.148Z,806.61
2017-07-28T00:34:39.605Z,806.59
2017-07-28T00:34:44.044Z,806.59
2017-07-28T00:34:48.279Z,806.6
2017-07-28T00:34:52.741Z,806.57
2017-07-28T00:34:57.083Z,806.57
2017-07-28T00:35:01.306Z,806.58
2017-07-28T00:35:05.975Z,806.6
2017-07-28T00:35:10.443Z,806.6
2017-07-28T00:35:14.905Z,806.53
2017-07-28T00:35:19.374Z,806.59
2017-07-28T00:35:23.723Z,806.57
2017-07-28T00:35:27.949Z,806.6
2017-07-28T00:35:32.276Z,806.59
2017-07-28T00:35:36.617Z,806.57
2017-07-28T00:35:40.955Z,806.6
2017-07-28T00:35:45.430Z,806.6
2017-07-28T00:35:49.885Z,806.62
2017-07-28T00:35:54.347Z,806.61
2017-07-28T00:35:58.809Z,806.58
2017-07-28T00:36:03.335Z,806.66
2017-07-28T00:36:07.675Z,806.6
2017-07-28T00:36:12.138Z,806.61
2017-07-28T00:36:16.471Z,806.58
2017-07-28T00:36:20.810Z,806.57
2017-07-28T00:36:25.265Z,806.59
2017-07-28T00:36:29.598Z,806.55
2017-07-28T00:36:33.940Z,806.57
2017-07-28T00:36:38.405Z,806.51
2017-07-28T00:36:42.525Z,806.54
2017-07-28T00:36:47.012Z,806.53
2017-07-28T00:36:51.482Z,806.57
2017-07-28T00:36:55.953Z,806.58
2017-07-28T00:37:00.322Z,806.59
2017-07-28T00:37:04.721Z,806.61
2017-07-28T00:37:09.171Z,806.56
2017-07-28T00:37:13.638Z,806.56
2017-07-28T00:37:18.001Z,806.63
2017-07-28T00:37:22.338Z,806.56
2017-07-28T00:37:26.681Z,806.52
2017-07-28T00:37:30.907Z,806.57
2017-07-28T00:37:35.365Z,806.59
2017-07-28T00:37:39.830Z,806.55
2017-07-28T00:37:44.272Z,806.57
2017-07-28T00:37:48.730Z,806.59
2017-07-28T00:37:53.068Z,806.58
2017-07-28T00:37:57.507Z,806.58
2017-07-28T00:38:02.205Z,806.57
2017-07-28T00:38:06.430Z,806.56
2017-07-28T00:38:10.906Z,806.58
2017-07-28T00:38:15.359Z,806.56
2017-07-28T00:38:19.825Z,806.57
2017-07-28T00:38:24.265Z,806.54
2017-07-28T00:38:28.618Z,806.54
2017-07-28T00:38:32.614Z,806.56
2017-07-28T00:38:37.086Z,806.54
2017-07-28T00:38:41.445Z,806.55
2017-07-28T00:38:45.917Z,806.56
2017-07-28T00:38:50.374Z,806.58
2017-07-28T00:38:54.733Z,806.6
2017-07-28T00:38:59.223Z,806.62
2017-07-28T00:39:03.333Z,806.59
2017-07-28T00:39:07.804Z,806.57
2017-07-28T00:39:12.258Z,806.57
2017-07-28T00:39:16.598Z,806.56
2017-07-28T00:39:20.928Z,806.59
2017-07-28T00:39:25.272Z,806.6
2017-07-28T00:39:29.478Z,806.57
2017-07-28T00:39:33.581Z,806.59
2017-07-28T00:39:38.039Z,806.59
2017-07-28T00:39:42.491Z,806.59
2017-07-28T00:39:46.942Z,806.51
2017-07-28T00:39:51.414Z,806.59
2017-07-28T00:39:55.746Z,806.59
2017-07-28T00:40:00.211Z,806.58
2017-07-28T00:40:04.580Z,806.57
2017-07-28T00:40:08.933Z,806.58
2017-07-28T00:40:13.165Z,806.59
2017-07-28T00:40:17.377Z,806.58
2017-07-28T00:40:21.729Z,806.61
2017-07-28T00:40:26.083Z,806.59
2017-07-28T00:40:30.543Z,806.57
2017-07-28T00:40:34.789Z,806.56
2017-07-28T00:40:39.255Z,806.56
2017-07-28T00:40:43.714Z,806.59
2017-07-28T00:40:48.166Z,806.56
2017-07-28T00:40:52.647Z,806.56
2017-07-28T00:40:57.120Z,806.57
2017-07-28T00:41:01.580Z,806.55
2017-07-28T00:41:06.189Z,806.62
2017-07-28T00:41:10.654Z,806.57
2017-07-28T00:41:14.997Z,806.56
2017-07-28T00:41:19.460Z,806.55
2017-07-28T00:41:23.808Z,806.5
2017-07-28T00:41:28.030Z,806.51
2017-07-28T00:41:32.274Z,806.53
2017-07-28T00:41:36.711Z,806.54
2017-07-28T00:41:41.175Z,806.49
2017-07-28T00:41:45.650Z,806.56
2017-07-28T00:41:50.093Z,806.52
2017-07-28T00:41:54.429Z,806.52
2017-07-28T00:41:58.884Z,806.57
2017-07-28T00:42:03.359Z,806.56
2017-07-28T00:42:07.823Z,806.55
2017-07-28T00:42:12.292Z,806.54
2017-07-28T00:42:16.642Z,806.56
2017-07-28T00:42:20.890Z,806.56
2017-07-28T00:42:25.352Z,806.54
2017-07-28T00:42:29.461Z,806.57
2017-07-28T00:42:33.676Z,806.57
2017-07-28T00:42:38.143Z,806.59
2017-07-28T00:42:42.604Z,806.59
2017-07-28T00:42:47.065Z,806.58
2017-07-28T00:42:51.528Z,806.57
2017-07-28T00:42:55.989Z,806.52
2017-07-28T00:43:00.436Z,806.53
2017-07-28T00:43:04.835Z,806.57
2017-07-28T00:43:09.198Z,806.54
2017-07-28T00:43:13.674Z,806.55
2017-07-28T00:43:18.005Z,806.57
2017-07-28T00:43:22.351Z,806.57
2017-07-28T00:43:26.829Z,806.59
2017-07-28T00:43:31.061Z,806.58
2017-07-28T00:43:35.533Z,806.55
2017-07-28T00:43:39.994Z,806.56
2017-07-28T00:43:44.475Z,806.57
2017-07-28T00:43:48.925Z,806.54
2017-07-28T00:43:53.250Z,806.59
2017-07-28T00:43:57.702Z,806.57
2017-07-28T00:44:02.214Z,806.5
2017-07-28T00:44:06.444Z,806.57
2017-07-28T00:44:10.794Z,806.59
2017-07-28T00:44:15.256Z,806.59
2017-07-28T00:44:19.466Z,806.57
2017-07-28T00:44:23.711Z,806.56
2017-07-28T00:44:28.186Z,806.59
2017-07-28T00:44:32.539Z,806.57
2017-07-28T00:44:36.870Z,806.56
2017-07-28T00:44:41.217Z,806.58
2017-07-28T00:44:45.674Z,806.62
2017-07-28T00:44:50.152Z,806.58
2017-07-28T00:44:54.500Z,806.59
2017-07-28T00:44:58.958Z,806.59
2017-07-28T00:45:03.727Z,806.57
2017-07-28T00:45:08.182Z,806.64
2017-07-28T00:45:12.643Z,806.61
2017-07-28T00:45:16.990Z,806.6
2017-07-28T00:45:21.341Z,806.61
2017-07-28T00:45:25.838Z,806.62
2017-07-28T00:45:30.309Z,806.58
2017-07-28T00:45:34.763Z,806.57
2017-07-28T00:45:39.224Z,806.61
2017-07-28T00:45:43.690Z,806.63
2017-07-28T00:45:48.152Z,806.63
2017-07-28T00:45:52.481Z,806.65
2017-07-28T00:45:56.837Z,806.62
2017-07-28T00:46:01.299Z,806.61
2017-07-28T00:46:05.632Z,806.6
2017-07-28T00:46:09.970Z,806.62
2017-07-28T00:46:14.447Z,806.63
2017-07-28T00:46:18.788Z,806.63
2017-07-28T00:46:23.383Z,806.62
2017-07-28T00:46:27.829Z,806.65
2017-07-28T00:46:32.060Z,806.67
2017-07-28T00:46:36.537Z,806.64
2017-07-28T00:46:40.884Z,806.69
2017-07-28T00:46:45.342Z,806.66
2017-07-28T00:46:49.799Z,806.71
2017-07-28T00:46:54.151Z,806.68
2017-07-28T00:46:58.608Z,806.7
2017-07-28T00:47:03.069Z,806.65
2017-07-28T00:47:07.517Z,806.65
2017-07-28T00:47:11.871Z,806.68
2017-07-28T00:47:16.320Z,806.67
2017-07-28T00:47:20.651Z,806.7
2017-07-28T00:47:24.899Z,806.69
2017-07-28T00:47:29.117Z,806.68
2017-07-28T00:47:33.455Z,806.65
2017-07-28T00:47:37.790Z,806.7
2017-07-28T00:47:42.162Z,806.7
2017-07-28T00:47:46.618Z,806.7
2017-07-28T00:47:51.079Z,806.71
2017-07-28T00:47:55.401Z,806.69
2017-07-28T00:47:59.872Z,806.71
2017-07-28T00:48:04.214Z,806.69
2017-07-28T00:48:08.551Z,806.7
2017-07-28T00:48:12.895Z,806.74
2017-07-28T00:48:17.373Z,806.74
2017-07-28T00:48:21.843Z,806.76
2017-07-28T00:48:26.196Z,806.73
2017-07-28T00:48:30.435Z,806.74
2017-07-28T00:48:34.905Z,806.69
2017-07-28T00:48:39.236Z,806.71
2017-07-28T00:48:43.563Z,806.71
2017-07-28T00:48:48.014Z,806.74
2017-07-28T00:48:52.361Z,806.74
2017-07-28T00:48:56.705Z,806.76
2017-07-28T00:49:01.165Z,806.79
2017-07-28T00:49:05.527Z,806.76
2017-07-28T00:49:10.026Z,806.75
2017-07-28T00:49:14.373Z,806.78
2017-07-28T00:49:18.827Z,806.71
2017-07-28T00:49:23.284Z,806.78
2017-07-28T00:49:27.740Z,806.77
2017-07-28T00:49:32.080Z,806.75
2017-07-28T00:49:36.551Z,806.82
2017-07-28T00:49:41.010Z,806.76
2017-07-28T00:49:45.460Z,806.84
2017-07-28T00:49:49.798Z,806.78
2017-07-28T00:49:54.010Z,806.8
2017-07-28T00:49:58.247Z,806.78
2017-07-28T00:50:02.796Z,806.78
2017-07-28T00:50:07.241Z,806.74
2017-07-28T00:50:11.588Z,806.8
2017-07-28T00:50:15.938Z,806.82
2017-07-28T00:50:20.385Z,806.8
2017-07-28T00:50:24.832Z,806.8
2017-07-28T00:50:29.276Z,806.78
2017-07-28T00:50:33.753Z,806.8
2017-07-28T00:50:38.222Z,806.79
2017-07-28T00:50:42.440Z,806.81
2017-07-28T00:50:46.802Z,806.84
2017-07-28T00:50:51.271Z,806.8
2017-07-28T00:50:55.615Z,806.76
2017-07-28T00:50:59.949Z,806.8
2017-07-28T00:51:04.309Z,806.84
2017-07-28T00:51:08.767Z,806.8
2017-07-28T00:51:13.225Z,806.81
2017-07-28T00:51:17.677Z,806.8
2017-07-28T00:51:22.156Z,806.81
2017-07-28T00:51:26.624Z,806.83
2017-07-28T00:51:31.081Z,806.81
2017-07-28T00:51:35.555Z,806.81
2017-07-28T00:51:39.887Z,806.83
2017-07-28T00:51:44.347Z,806.84
2017-07-28T00:51:48.812Z,806.83
2017-07-28T00:51:53.172Z,806.84
2017-07-28T00:51:57.651Z,806.8
2017-07-28T00:52:02.260Z,806.78
2017-07-28T00:52:06.484Z,806.83
2017-07-28T00:52:10.707Z,806.8
2017-07-28T00:52:14.933Z,806.84
2017-07-28T00:52:19.399Z,806.82
2017-07-28T00:52:23.859Z,806.85
2017-07-28T00:52:28.325Z,806.85
2017-07-28T00:52:32.796Z,806.85
2017-07-28T00:52:37.258Z,806.82
2017-07-28T00:52:41.717Z,806.86
2017-07-28T00:52:46.178Z,806.84
2017-07-28T00:52:50.643Z,806.86
2017-07-28T00:52:55.096Z,806.81
2017-07-28T00:52:59.459Z,806.82
2017-07-28T00:53:04.278Z,806.88
2017-07-28T00:53:08.738Z,806.87
2017-07-28T00:53:12.960Z,806.9
2017-07-28T00:53:17.324Z,806.87
2017-07-28T00:53:21.795Z,806.88
2017-07-28T00:53:26.144Z,806.89
2017-07-28T00:53:30.622Z,806.9
2017-07-28T00:53:34.977Z,806.9
2017-07-28T00:53:39.452Z,806.88
2017-07-28T00:53:43.804Z,806.92
2017-07-28T00:53:48.156Z,806.9
2017-07-28T00:53:52.610Z,806.88
2017-07-28T00:53:56.949Z,806.92
2017-07-28T00:54:01.188Z,806.91
2017-07-28T00:54:05.520Z,806.91
2017-07-28T00:54:09.855Z,806.91
2017-07-28T00:54:14.316Z,806.93
2017-07-28T00:54:18.538Z,806.96
2017-07-28T00:54:22.766Z,806.94
2017-07-28T00:54:27.112Z,806.91
2017-07-28T00:54:31.208Z,806.92
2017-07-28T00:54:35.672Z,806.92
2017-07-28T00:54:40.132Z,806.97
2017-07-28T00:54:44.480Z,806.94
2017-07-28T00:54:48.943Z,806.95
2017-07-28T00:54:53.286Z,806.98
2017-07-28T00:54:57.771Z,806.94
2017-07-28T00:55:02.110Z,806.9